createdAt,value
2023-10-06T00:00:45.539Z,59.13
2023-10-06T00:03:33.314Z,59.75
2023-10-06T00:06:01.339Z,60.75
2023-10-06T00:08:34.449Z,61.51
2023-10-06T00:11:17.135Z,65.15
2023-10-06T00:14:02.367Z,60.09
2023-10-06T00:16:40.680Z,54.25
2023-10-06T00:19:34.857Z,55.41
2023-10-06T00:22:04.929Z,57.42
2023-10-06T00:24:32.997Z,58.85
2023-10-06T00:27:00.779Z,59.73
2023-10-06T00:29:30.569Z,60.60
2023-10-06T00:32:18.519Z,61.90
2023-10-06T00:34:46.588Z,65.22
2023-10-06T00:37:15.103Z,60.59
2023-10-06T00:39:44.087Z,54.53
2023-10-06T00:42:16.131Z,55.00
2023-10-06T00:44:46.754Z,56.86
2023-10-06T00:47:14.928Z,59.10
2023-10-06T00:49:44.775Z,60.32
2023-10-06T00:52:16.897Z,61.53
2023-10-06T00:54:45.164Z,64.98
2023-10-06T00:57:12.992Z,61.32
2023-10-06T00:59:42.861Z,55.40
2023-10-06T01:02:12.537Z,56.03
2023-10-06T01:04:46.878Z,57.89
2023-10-06T01:07:15.163Z,59.58
2023-10-06T01:09:42.931Z,60.55
2023-10-06T01:12:15.137Z,60.99
2023-10-06T01:14:42.878Z,62.15
2023-10-06T01:17:19.742Z,66.47
2023-10-06T01:19:50.624Z,62.56
2023-10-06T01:22:26.428Z,56.01
2023-10-06T01:24:57.162Z,56.09
2023-10-06T01:27:27.876Z,58.35
2023-10-06T01:30:15.759Z,59.90
2023-10-06T01:32:47.103Z,61.28
2023-10-06T01:35:14.959Z,65.43
2023-10-06T01:37:43.406Z,62.56
2023-10-06T01:40:17.244Z,56.28
2023-10-06T01:42:46.850Z,56.10
2023-10-06T01:45:22.495Z,58.35
2023-10-06T01:47:58.205Z,60.23
2023-10-06T01:50:28.107Z,61.49
2023-10-06T01:52:57.434Z,65.67
2023-10-06T01:55:26.015Z,62.50
2023-10-06T01:57:55.602Z,56.51
2023-10-06T02:00:28.229Z,56.28
2023-10-06T02:02:55.932Z,58.39
2023-10-06T02:05:23.964Z,60.52
2023-10-06T02:07:52.953Z,61.89
2023-10-06T02:10:21.036Z,65.59
2023-10-06T02:12:48.796Z,62.51
2023-10-06T02:15:17.784Z,56.44
2023-10-06T02:17:46.040Z,56.38
2023-10-06T02:20:30.446Z,58.66
2023-10-06T02:23:01.445Z,60.32
2023-10-06T02:25:29.642Z,61.88
2023-10-06T02:28:01.111Z,65.29
2023-10-06T02:30:35.428Z,62.26
2023-10-06T02:33:03.291Z,56.04
2023-10-06T02:35:31.070Z,56.29
2023-10-06T02:37:59.451Z,58.50
2023-10-06T02:40:45.541Z,60.58
2023-10-06T02:43:14.806Z,62.00
2023-10-06T02:45:42.564Z,65.63
2023-10-06T02:48:18.029Z,60.61
2023-10-06T02:50:46.090Z,55.54
2023-10-06T02:53:21.897Z,56.78
2023-10-06T02:55:57.233Z,59.08
2023-10-06T02:58:29.239Z,60.93
2023-10-06T03:00:57.523Z,62.20
2023-10-06T03:03:29.508Z,65.29
2023-10-06T03:05:57.905Z,59.90
2023-10-06T03:08:29.368Z,55.28
2023-10-06T03:10:57.676Z,56.79
2023-10-06T03:13:37.333Z,59.06
2023-10-06T03:16:16.872Z,60.74
2023-10-06T03:18:46.006Z,62.77
2023-10-06T03:21:13.762Z,64.25
2023-10-06T03:23:45.431Z,58.18
2023-10-06T03:26:22.903Z,55.02
2023-10-06T03:28:54.451Z,57.05
2023-10-06T03:31:22.540Z,59.36
2023-10-06T03:33:50.778Z,60.81
2023-10-06T03:36:37.204Z,62.04
2023-10-06T03:39:09.318Z,66.14
2023-10-06T03:41:38.956Z,61.23
2023-10-06T03:44:06.818Z,55.56
2023-10-06T03:46:39.760Z,55.91
2023-10-06T03:49:14.841Z,58.17
2023-10-06T03:51:42.710Z,59.91
2023-10-06T03:54:10.899Z,61.37
2023-10-06T03:56:38.647Z,62.39
2023-10-06T03:59:17.116Z,66.70
2023-10-06T04:01:48.153Z,62.70
2023-10-06T04:04:17.224Z,56.63
2023-10-06T04:06:45.571Z,56.65
2023-10-06T04:09:20.436Z,59.19
2023-10-06T04:11:48.490Z,61.47
2023-10-06T04:14:16.312Z,64.96
2023-10-06T04:16:47.230Z,62.11
2023-10-06T04:19:18.219Z,56.16
2023-10-06T04:21:45.994Z,56.33
2023-10-06T04:24:14.980Z,59.01
2023-10-06T04:26:42.779Z,60.66
2023-10-06T04:29:11.043Z,63.25
2023-10-06T04:31:39.111Z,64.62
2023-10-06T04:34:06.967Z,58.73
2023-10-06T04:36:34.941Z,55.11
2023-10-06T04:39:02.701Z,57.13
2023-10-06T04:41:30.341Z,59.30
2023-10-06T04:44:03.531Z,61.26
2023-10-06T04:46:31.349Z,64.99
2023-10-06T04:48:58.976Z,61.49
2023-10-06T04:51:28.501Z,55.51
2023-10-06T04:53:56.393Z,56.12
2023-10-06T04:56:23.985Z,58.44
2023-10-06T04:58:54.248Z,60.10
2023-10-06T05:01:22.277Z,61.56
2023-10-06T05:03:49.950Z,64.92
2023-10-06T05:06:18.662Z,61.00
2023-10-06T05:08:50.673Z,55.01
2023-10-06T05:11:19.088Z,55.72
2023-10-06T05:13:50.616Z,57.78
2023-10-06T05:16:20.523Z,59.86
2023-10-06T05:18:49.139Z,61.18
2023-10-06T05:21:17.021Z,62.36
2023-10-06T05:23:46.668Z,65.40
2023-10-06T05:26:16.951Z,60.84
2023-10-06T05:28:45.807Z,55.06
2023-10-06T05:31:14.147Z,56.14
2023-10-06T05:33:42.489Z,58.85
2023-10-06T05:36:11.426Z,60.76
2023-10-06T05:38:39.551Z,62.75
2023-10-06T05:41:13.580Z,64.77
2023-10-06T05:43:42.061Z,58.50
2023-10-06T05:46:10.885Z,55.44
2023-10-06T05:48:40.095Z,57.60
2023-10-06T05:51:11.846Z,60.08
2023-10-06T05:53:40.767Z,62.06
2023-10-06T05:56:09.073Z,65.48
2023-10-06T05:58:39.370Z,60.63
2023-10-06T06:01:07.908Z,55.57
2023-10-06T06:03:36.557Z,56.88
2023-10-06T06:06:09.604Z,59.26
2023-10-06T06:08:39.134Z,61.05
2023-10-06T06:11:07.358Z,65.23
2023-10-06T06:13:35.554Z,62.58
2023-10-06T06:16:03.868Z,56.52
2023-10-06T06:18:32.234Z,57.05
2023-10-06T06:21:00.100Z,59.61
2023-10-06T06:23:27.772Z,61.62
2023-10-06T06:25:55.863Z,65.34
2023-10-06T06:28:23.913Z,62.14
2023-10-06T06:30:51.980Z,56.47
2023-10-06T06:33:21.079Z,56.65
2023-10-06T06:35:48.696Z,59.08
2023-10-06T06:38:18.837Z,61.38
2023-10-06T06:40:47.441Z,64.62
2023-10-06T06:43:15.221Z,61.13
2023-10-06T06:45:42.927Z,56.00
2023-10-06T06:48:18.509Z,56.78
2023-10-06T06:50:47.693Z,59.03
2023-10-06T06:53:15.389Z,60.93
2023-10-06T06:55:44.376Z,63.96
2023-10-06T06:58:12.899Z,61.79
2023-10-06T07:00:41.242Z,56.46
2023-10-06T07:03:09.732Z,57.03
2023-10-06T07:05:37.518Z,59.63
2023-10-06T07:08:06.450Z,61.93
2023-10-06T07:10:34.436Z,63.41
2023-10-06T07:13:02.323Z,58.06
2023-10-06T07:15:30.588Z,55.44
2023-10-06T07:17:59.150Z,58.23
2023-10-06T07:20:28.566Z,60.51
2023-10-06T07:22:57.232Z,64.23
2023-10-06T07:25:28.191Z,60.16
2023-10-06T07:27:56.688Z,55.71
2023-10-06T07:30:24.496Z,57.81
2023-10-06T07:32:58.416Z,60.17
2023-10-06T07:35:38.551Z,61.72
2023-10-06T07:38:06.400Z,65.34
2023-10-06T07:40:34.103Z,60.71
2023-10-06T07:43:04.132Z,55.75
2023-10-06T07:45:33.131Z,56.40
2023-10-06T07:48:00.937Z,58.84
2023-10-06T07:50:30.419Z,61.05
2023-10-06T07:52:58.625Z,63.09
2023-10-06T07:55:26.357Z,63.87
2023-10-06T07:57:54.738Z,57.89
2023-10-06T08:00:33.841Z,55.46
2023-10-06T08:03:01.574Z,58.00
2023-10-06T08:05:30.984Z,59.98
2023-10-06T08:08:01.981Z,61.72
2023-10-06T08:10:32.230Z,65.19
2023-10-06T08:13:03.355Z,60.87
2023-10-06T08:15:34.114Z,55.29
2023-10-06T08:18:02.151Z,57.01
2023-10-06T08:20:31.672Z,58.10
2023-10-06T08:22:59.807Z,59.77
2023-10-06T08:25:27.804Z,61.60
2023-10-06T08:27:56.251Z,64.90
2023-10-06T08:30:24.341Z,60.57
2023-10-06T08:32:55.047Z,54.94
2023-10-06T08:35:22.933Z,56.05
2023-10-06T08:37:51.335Z,58.26
2023-10-06T08:40:20.953Z,60.40
2023-10-06T08:42:52.717Z,61.19
2023-10-06T08:45:23.657Z,61.76
2023-10-06T08:48:01.705Z,65.73
2023-10-06T08:50:31.817Z,61.19
2023-10-06T08:52:59.758Z,55.28
2023-10-06T08:55:29.140Z,55.96
2023-10-06T08:58:02.846Z,57.96
2023-10-06T09:00:35.793Z,59.63
2023-10-06T09:03:13.064Z,61.50
2023-10-06T09:05:40.968Z,61.73
2023-10-06T09:08:10.313Z,64.90
2023-10-06T09:10:38.341Z,61.13
2023-10-06T09:13:07.343Z,55.15
2023-10-06T09:15:36.911Z,55.33
2023-10-06T09:18:04.833Z,57.40
2023-10-06T09:20:33.335Z,58.93
2023-10-06T09:23:01.401Z,60.06
2023-10-06T09:25:29.231Z,61.27
2023-10-06T09:27:59.757Z,64.79
2023-10-06T09:30:28.035Z,62.25
2023-10-06T09:32:56.251Z,54.70
2023-10-06T09:35:24.458Z,54.83
2023-10-06T09:37:56.103Z,56.38
2023-10-06T09:40:24.211Z,57.77
2023-10-06T09:42:51.981Z,59.59
2023-10-06T09:45:19.744Z,60.20
2023-10-06T09:47:47.558Z,60.59
2023-10-06T09:50:16.018Z,60.80
2023-10-06T09:52:45.185Z,61.64
2023-10-06T09:55:13.051Z,61.45
2023-10-06T09:57:40.814Z,64.36
2023-10-06T10:00:16.861Z,59.69
2023-10-06T10:02:46.373Z,54.18
2023-10-06T10:05:14.959Z,55.56
2023-10-06T10:07:42.729Z,57.69
2023-10-06T10:10:12.352Z,59.16
2023-10-06T10:12:40.299Z,59.17
2023-10-06T10:15:13.459Z,60.41
2023-10-06T10:17:41.282Z,59.23
2023-10-06T10:20:10.992Z,59.86
2023-10-06T10:22:39.038Z,59.49
2023-10-06T10:25:24.015Z,59.88
2023-10-06T10:27:52.654Z,60.16
2023-10-06T10:30:20.334Z,60.76
2023-10-06T10:32:47.957Z,60.75
2023-10-06T10:35:15.736Z,61.10
2023-10-06T10:37:43.748Z,65.40
2023-10-06T10:40:13.876Z,62.25
2023-10-06T10:42:42.144Z,54.37
2023-10-06T10:45:09.906Z,52.41
2023-10-06T10:47:38.364Z,53.54
2023-10-06T10:50:06.770Z,55.51
2023-10-06T10:52:35.035Z,56.45
2023-10-06T10:55:02.680Z,56.84
2023-10-06T10:57:30.305Z,57.44
2023-10-06T10:59:57.898Z,57.12
2023-10-06T11:02:25.819Z,58.01
2023-10-06T11:04:53.510Z,57.71
2023-10-06T11:07:21.154Z,57.67
2023-10-06T11:09:48.801Z,58.97
2023-10-06T11:14:51.131Z,59.10
2023-10-06T11:17:19.168Z,59.50
2023-10-06T11:19:46.901Z,61.51
2023-10-06T11:22:15.022Z,60.84
2023-10-06T11:24:44.586Z,62.02
2023-10-06T11:27:13.188Z,61.04
2023-10-06T11:29:41.131Z,60.86
2023-10-06T11:32:09.017Z,60.45
2023-10-06T11:34:36.970Z,61.30
2023-10-06T11:37:06.520Z,64.30
2023-10-06T11:39:34.185Z,59.61
2023-10-06T11:42:04.946Z,52.85
2023-10-06T11:44:36.653Z,51.85
2023-10-06T11:47:05.503Z,54.70
2023-10-06T11:49:34.828Z,53.93
2023-10-06T11:52:02.461Z,53.66
2023-10-06T11:54:30.933Z,54.26
2023-10-06T11:56:58.510Z,55.61
2023-10-06T11:59:26.112Z,54.09
2023-10-06T12:01:54.364Z,54.30
2023-10-06T12:04:22.196Z,54.19
2023-10-06T12:06:52.232Z,54.21
2023-10-06T12:09:19.833Z,54.63
2023-10-06T12:11:47.497Z,55.28
2023-10-06T12:14:15.284Z,55.75
2023-10-06T12:16:46.322Z,55.01
2023-10-06T12:19:15.230Z,56.94
2023-10-06T12:21:42.950Z,55.47
2023-10-06T12:24:12.975Z,56.97
2023-10-06T12:26:41.015Z,56.82
2023-10-06T12:29:08.684Z,57.30
2023-10-06T12:31:36.369Z,57.65
2023-10-06T12:34:05.492Z,57.20
2023-10-06T12:36:33.352Z,57.59
2023-10-06T12:39:01.006Z,57.55
2023-10-06T12:41:28.768Z,56.15
2023-10-06T12:44:03.685Z,57.06
2023-10-06T12:46:34.886Z,56.27
2023-10-06T12:49:06.494Z,56.50
2023-10-06T12:51:34.114Z,55.45
2023-10-06T12:54:01.722Z,55.24
2023-10-06T12:56:32.744Z,56.48
2023-10-06T12:59:00.476Z,56.35
2023-10-06T13:01:32.111Z,57.18
2023-10-06T13:04:00.737Z,56.44
2023-10-06T13:06:31.241Z,56.10
2023-10-06T13:09:03.201Z,55.80
2023-10-06T13:11:30.841Z,55.30
2023-10-06T13:13:58.842Z,56.24
2023-10-06T13:16:26.581Z,55.92
2023-10-06T13:18:54.242Z,56.16
2023-10-06T13:21:21.864Z,56.21
2023-10-06T13:23:49.553Z,56.13
2023-10-06T13:26:35.751Z,56.66
2023-10-06T13:29:07.902Z,56.65
2023-10-06T13:31:35.586Z,55.84
2023-10-06T13:34:03.909Z,55.75
2023-10-06T13:36:32.267Z,54.67
2023-10-06T13:38:59.862Z,54.39
2023-10-06T13:41:27.827Z,55.49
2023-10-06T13:43:55.765Z,55.27
2023-10-06T13:46:24.956Z,56.00
2023-10-06T13:48:52.641Z,56.19
2023-10-06T13:51:20.423Z,56.27
2023-10-06T13:53:48.004Z,55.95
2023-10-06T13:56:15.694Z,55.74
2023-10-06T13:58:43.329Z,55.55
2023-10-06T14:01:13.029Z,55.82
2023-10-06T14:03:40.829Z,56.38
2023-10-06T14:06:09.145Z,55.64
2023-10-06T14:08:37.224Z,55.61
2023-10-06T14:11:05.123Z,56.50
2023-10-06T14:13:34.987Z,56.60
2023-10-06T14:16:10.704Z,55.95
2023-10-06T14:18:40.305Z,55.91
2023-10-06T14:21:08.014Z,55.69
2023-10-06T14:23:37.340Z,55.64
2023-10-06T14:26:10.737Z,55.49
2023-10-06T14:28:38.490Z,56.37
2023-10-06T14:31:25.311Z,55.61
2023-10-06T14:34:19.473Z,55.71
2023-10-06T14:36:47.988Z,55.13
2023-10-06T14:39:34.563Z,55.44
2023-10-06T14:42:02.170Z,55.71
2023-10-06T14:44:48.499Z,55.68
2023-10-06T14:47:16.710Z,55.60
2023-10-06T14:49:45.499Z,55.75
2023-10-06T14:52:14.450Z,56.03
2023-10-06T14:54:42.350Z,55.45
2023-10-06T14:57:10.005Z,55.95
2023-10-06T14:59:38.552Z,55.62
2023-10-06T15:02:11.880Z,56.19
2023-10-06T15:04:40.681Z,56.18
2023-10-06T15:07:10.392Z,56.18
2023-10-06T15:09:39.847Z,55.88
2023-10-06T15:12:07.900Z,56.27
2023-10-06T15:14:38.024Z,56.10
2023-10-06T15:17:06.536Z,56.62
2023-10-06T15:19:37.858Z,56.34
2023-10-06T15:22:09.939Z,56.23
2023-10-06T15:24:38.854Z,56.34
2023-10-06T15:27:08.269Z,56.58
2023-10-06T15:29:36.247Z,56.83
2023-10-06T15:32:06.626Z,56.79
2023-10-06T15:34:36.708Z,57.20
2023-10-06T15:37:06.032Z,57.31
2023-10-06T15:39:34.067Z,57.40
2023-10-06T15:42:02.547Z,57.51
2023-10-06T15:44:30.270Z,57.71
2023-10-06T15:46:58.501Z,57.76
2023-10-06T15:49:26.928Z,57.89
2023-10-06T15:51:54.642Z,58.47
2023-10-06T15:54:23.601Z,58.57
2023-10-06T15:56:52.179Z,58.46
2023-10-06T15:59:21.743Z,58.90
2023-10-06T16:01:50.355Z,58.46
2023-10-06T16:04:19.257Z,58.56
2023-10-06T16:06:48.156Z,58.53
2023-10-06T16:09:19.124Z,58.59
2023-10-06T16:11:47.578Z,58.48
2023-10-06T16:14:17.753Z,58.83
2023-10-06T16:16:47.420Z,58.97
2023-10-06T16:19:15.841Z,60.50
2023-10-06T16:21:43.784Z,60.54
2023-10-06T16:24:13.724Z,61.29
2023-10-06T16:26:42.286Z,61.81
2023-10-06T16:29:11.718Z,61.82
2023-10-06T16:31:39.722Z,62.23
2023-10-06T16:34:07.769Z,65.91
2023-10-06T16:36:36.349Z,63.28
2023-10-06T16:39:17.559Z,55.95
2023-10-06T16:41:46.396Z,54.77
2023-10-06T16:44:16.371Z,55.85
2023-10-06T16:46:44.366Z,56.71
2023-10-06T16:49:12.185Z,57.72
2023-10-06T16:51:40.944Z,58.92
2023-10-06T16:54:11.331Z,59.24
2023-10-06T16:56:39.512Z,59.60
2023-10-06T16:59:07.769Z,59.71
2023-10-06T17:01:36.117Z,59.96
2023-10-06T17:04:07.831Z,61.02
2023-10-06T17:06:36.800Z,61.30
2023-10-06T17:09:15.234Z,61.66
2023-10-06T17:11:44.736Z,65.81
2023-10-06T17:14:13.228Z,61.90
2023-10-06T17:16:44.434Z,54.64
2023-10-06T17:19:13.823Z,53.62
2023-10-06T17:21:43.929Z,54.87
2023-10-06T17:24:12.636Z,56.00
2023-10-06T17:26:41.250Z,57.11
2023-10-06T17:29:09.861Z,57.97
2023-10-06T17:31:38.074Z,58.17
2023-10-06T17:34:10.712Z,59.56
2023-10-06T17:36:40.372Z,60.60
2023-10-06T17:39:13.135Z,61.18
2023-10-06T17:41:41.650Z,61.49
2023-10-06T17:44:10.615Z,61.38
2023-10-06T17:46:39.559Z,65.49
2023-10-06T17:49:12.065Z,62.58
2023-10-06T17:51:42.270Z,55.14
2023-10-06T17:54:11.942Z,54.56
2023-10-06T17:56:45.322Z,56.34
2023-10-06T17:59:16.945Z,57.43
2023-10-06T18:01:44.929Z,58.58
2023-10-06T18:04:13.879Z,59.31
2023-10-06T18:06:41.626Z,59.96
2023-10-06T18:09:10.332Z,60.57
2023-10-06T18:11:38.133Z,60.99
2023-10-06T18:14:05.765Z,61.40
2023-10-06T18:16:33.609Z,61.85
2023-10-06T18:19:01.956Z,62.09
2023-10-06T18:21:31.451Z,65.77
2023-10-06T18:24:00.737Z,62.39
2023-10-06T18:26:29.035Z,55.18
2023-10-06T18:28:56.730Z,54.54
2023-10-06T18:31:26.526Z,56.22
2023-10-06T18:33:54.382Z,57.48
2023-10-06T18:36:22.252Z,58.46
2023-10-06T18:38:51.758Z,59.50
2023-10-06T18:41:19.423Z,59.88
2023-10-06T18:43:47.106Z,60.63
2023-10-06T18:46:15.907Z,61.36
2023-10-06T18:48:43.835Z,61.84
2023-10-06T18:51:12.451Z,62.04
2023-10-06T18:53:45.463Z,65.73
2023-10-06T18:56:14.924Z,62.07
2023-10-06T18:58:42.712Z,55.11
2023-10-06T19:01:10.591Z,54.45
2023-10-06T19:03:39.723Z,56.00
2023-10-06T19:06:08.576Z,57.30
2023-10-06T19:08:46.049Z,58.51
2023-10-06T19:11:15.432Z,59.23
2023-10-06T19:13:43.225Z,60.06
2023-10-06T19:16:11.613Z,60.65
2023-10-06T19:18:40.014Z,61.53
2023-10-06T19:21:08.021Z,65.84
2023-10-06T19:23:36.763Z,62.97
2023-10-06T19:26:06.552Z,55.99
2023-10-06T19:28:34.570Z,55.11
2023-10-06T19:31:02.421Z,56.66
2023-10-06T19:33:30.071Z,58.05
2023-10-06T19:35:57.752Z,59.13
2023-10-06T19:38:25.467Z,59.96
2023-10-06T19:40:53.263Z,60.57
2023-10-06T19:43:22.503Z,60.94
2023-10-06T19:45:53.049Z,61.83
2023-10-06T19:48:21.658Z,65.56
2023-10-06T19:50:51.897Z,62.00
2023-10-06T19:53:24.832Z,55.17
2023-10-06T19:55:54.488Z,54.90
2023-10-06T19:58:26.021Z,56.46
2023-10-06T20:00:53.826Z,57.81
2023-10-06T20:03:21.677Z,59.05
2023-10-06T20:05:50.863Z,60.04
2023-10-06T20:08:21.194Z,60.96
2023-10-06T20:10:49.903Z,61.08
2023-10-06T20:13:17.722Z,61.57
2023-10-06T20:15:51.546Z,65.80
2023-10-06T20:18:21.988Z,62.29
2023-10-06T20:20:53.795Z,55.62
2023-10-06T20:23:23.039Z,55.14
2023-10-06T20:25:54.110Z,56.94
2023-10-06T20:28:23.228Z,58.47
2023-10-06T20:30:51.695Z,59.61
2023-10-06T20:33:19.710Z,60.82
2023-10-06T20:35:48.324Z,61.45
2023-10-06T20:38:18.200Z,64.95
2023-10-06T20:40:47.784Z,62.64
2023-10-06T20:43:16.313Z,55.55
2023-10-06T20:45:48.027Z,54.85
2023-10-06T20:48:16.564Z,56.32
2023-10-06T20:50:44.393Z,58.23
2023-10-06T20:53:12.237Z,59.41
2023-10-06T20:55:40.028Z,60.24
2023-10-06T20:58:07.968Z,61.36
2023-10-06T21:00:35.666Z,65.23
2023-10-06T21:03:03.642Z,62.95
2023-10-06T21:05:31.675Z,55.96
2023-10-06T21:07:59.664Z,55.14
2023-10-06T21:10:27.715Z,56.88
2023-10-06T21:12:55.545Z,58.40
2023-10-06T21:15:25.001Z,59.75
2023-10-06T21:17:56.082Z,60.45
2023-10-06T21:20:24.507Z,61.20
2023-10-06T21:22:52.626Z,64.42
2023-10-06T21:25:20.402Z,62.68
2023-10-06T21:27:48.170Z,56.18
2023-10-06T21:30:18.893Z,55.13
2023-10-06T21:32:46.881Z,56.95
2023-10-06T21:35:16.035Z,58.34
2023-10-06T21:37:45.998Z,59.71
2023-10-06T21:40:14.493Z,60.21
2023-10-06T21:42:42.523Z,61.21
2023-10-06T21:45:10.567Z,64.98
2023-10-06T21:47:38.524Z,63.78
2023-10-06T21:50:06.384Z,56.14
2023-10-06T21:52:34.148Z,54.78
2023-10-06T21:55:02.039Z,56.52
2023-10-06T21:57:36.151Z,57.78
2023-10-06T22:00:12.704Z,58.91
2023-10-06T22:02:42.525Z,59.97
2023-10-06T22:05:11.737Z,60.75
2023-10-06T22:07:41.221Z,61.06
2023-10-06T22:10:10.410Z,64.53
2023-10-06T22:12:38.786Z,62.23
2023-10-06T22:15:06.458Z,55.42
2023-10-06T22:17:36.180Z,54.50
2023-10-06T22:20:04.662Z,56.24
2023-10-06T22:22:33.487Z,57.46
2023-10-06T22:25:01.513Z,58.38
2023-10-06T22:27:30.432Z,59.79
2023-10-06T22:30:00.994Z,60.43
2023-10-06T22:32:28.983Z,61.15
2023-10-06T22:34:56.891Z,65.27
2023-10-06T22:37:27.214Z,62.87
2023-10-06T22:39:56.456Z,55.27
2023-10-06T22:42:24.054Z,54.28
2023-10-06T22:44:53.451Z,55.59
2023-10-06T22:47:22.330Z,57.19
2023-10-06T22:49:51.998Z,58.38
2023-10-06T22:52:19.821Z,59.05
2023-10-06T22:54:47.574Z,60.25
2023-10-06T22:57:15.339Z,60.76
2023-10-06T22:59:43.104Z,61.84
2023-10-06T23:02:11.235Z,65.26
2023-10-06T23:04:39.085Z,63.07
2023-10-06T23:07:06.809Z,55.89
2023-10-06T23:09:36.716Z,54.49
2023-10-06T23:12:06.054Z,55.89
2023-10-06T23:14:33.897Z,57.31
2023-10-06T23:17:05.711Z,58.66
2023-10-06T23:19:35.613Z,58.96
2023-10-06T23:22:03.485Z,59.31
2023-10-06T23:24:49.271Z,60.33
2023-10-06T23:27:17.900Z,61.19
2023-10-06T23:29:45.738Z,65.59
2023-10-06T23:32:13.712Z,63.14
2023-10-06T23:34:43.526Z,55.60
2023-10-06T23:37:13.873Z,54.51
2023-10-06T23:39:41.634Z,56.01
2023-10-06T23:42:20.662Z,57.13
2023-10-06T23:44:49.273Z,58.06
2023-10-06T23:47:20.021Z,59.56
2023-10-06T23:49:47.980Z,59.91
2023-10-06T23:52:15.918Z,60.62
2023-10-06T23:54:43.682Z,61.16
2023-10-06T23:57:17.502Z,65.38
2023-10-06T23:59:49.416Z,62.73
